createdAt,value
2018-11-03T00:02:21.549Z,3.67
2018-11-03T00:04:49.038Z,5.63
2018-11-03T00:07:16.463Z,6.63
2018-11-03T00:09:44.826Z,5.47
2018-11-03T00:12:12.298Z,8.63
2018-11-03T00:14:39.724Z,8.53
2018-11-03T00:17:07.158Z,11.17
2018-11-03T00:19:34.661Z,8.33
2018-11-03T00:22:02.137Z,10.83
2018-11-03T00:24:29.545Z,10.30
2018-11-03T00:26:56.943Z,8.83
2018-11-03T00:29:24.381Z,5.13
2018-11-03T00:31:51.788Z,9.77
2018-11-03T00:34:19.240Z,7.17
2018-11-03T00:36:46.659Z,10.47
2018-11-03T00:39:14.080Z,7.40
2018-11-03T00:41:41.809Z,10.30
2018-11-03T00:44:09.697Z,8.10
2018-11-03T00:46:37.253Z,9.43
2018-11-03T00:49:04.809Z,14.40
2018-11-03T00:51:33.345Z,6.73
2018-11-03T00:54:00.801Z,10.67
2018-11-03T00:56:28.281Z,10.30
2018-11-03T00:58:56.545Z,7.17
2018-11-03T01:01:23.989Z,7.70
2018-11-03T01:03:51.426Z,5.83
2018-11-03T01:06:18.880Z,8.20
2018-11-03T01:08:46.316Z,6.73
2018-11-03T01:11:13.736Z,7.77
2018-11-03T01:13:41.139Z,7.43
2018-11-03T01:16:08.619Z,8.10
2018-11-03T01:18:36.055Z,7.23
2018-11-03T01:21:04.088Z,8.03
2018-11-03T01:23:31.526Z,5.77
2018-11-03T01:25:58.957Z,5.33
2018-11-03T01:28:26.365Z,8.13
2018-11-03T01:30:53.809Z,10.27
2018-11-03T01:33:21.264Z,9.27
2018-11-03T01:35:48.680Z,12.57
2018-11-03T01:38:16.090Z,6.43
2018-11-03T01:40:43.511Z,11.23
2018-11-03T01:43:10.920Z,6.60
2018-11-03T01:45:38.358Z,11.57
2018-11-03T01:48:05.803Z,3.97
2018-11-03T01:50:33.246Z,8.33
2018-11-03T01:53:00.705Z,6.63
2018-11-03T01:55:28.118Z,6.13
2018-11-03T01:57:55.514Z,7.60
2018-11-03T02:00:23.069Z,9.20
2018-11-03T02:02:50.376Z,7.83
2018-11-03T02:05:17.813Z,9.20
2018-11-03T02:07:45.250Z,10.57
2018-11-03T02:10:12.678Z,10.43
2018-11-03T02:12:40.645Z,9.20
2018-11-03T02:15:08.472Z,6.57
2018-11-03T02:17:35.889Z,8.17
2018-11-03T02:20:03.919Z,14.10
2018-11-03T02:22:31.293Z,9.07
2018-11-03T02:24:58.823Z,9.77
2018-11-03T02:27:26.261Z,9.10
2018-11-03T02:29:53.687Z,15.13
2018-11-03T02:32:21.158Z,10.83
2018-11-03T02:34:48.546Z,11.80
2018-11-03T02:37:15.992Z,12.57
2018-11-03T02:39:43.450Z,14.37
2018-11-03T02:42:10.862Z,8.97
2018-11-03T02:44:38.328Z,9.73
2018-11-03T02:47:06.266Z,8.40
2018-11-03T02:49:33.676Z,13.50
2018-11-03T02:52:01.168Z,13.50
2018-11-03T02:54:28.582Z,10.37
2018-11-03T02:56:56.036Z,8.63
2018-11-03T02:59:23.447Z,8.33
2018-11-03T03:01:50.885Z,10.40
2018-11-03T03:04:18.308Z,8.37
2018-11-03T03:06:45.679Z,9.07
2018-11-03T03:09:13.088Z,12.93
2018-11-03T03:11:40.498Z,9.70
2018-11-03T03:14:07.986Z,11.37
2018-11-03T03:16:35.415Z,19.23
2018-11-03T03:19:02.866Z,14.30
2018-11-03T03:21:30.289Z,7.80
2018-11-03T03:23:57.725Z,9.00
2018-11-03T03:26:25.114Z,9.73
2018-11-03T03:28:52.543Z,10.27
2018-11-03T03:31:19.973Z,12.37
2018-11-03T03:33:47.412Z,9.57
2018-11-03T03:36:14.860Z,8.77
2018-11-03T03:38:42.266Z,8.83
2018-11-03T03:41:09.761Z,11.00
2018-11-03T03:43:37.187Z,9.87
2018-11-03T03:46:06.082Z,12.10
2018-11-03T03:48:33.688Z,12.57
2018-11-03T03:51:01.301Z,7.27
2018-11-03T03:53:29.676Z,12.77
2018-11-03T03:56:34.198Z,14.43
2018-11-03T03:59:11.865Z,10.20
2018-11-03T04:01:39.609Z,8.83
2018-11-03T04:04:07.190Z,11.37
2018-11-03T04:06:34.707Z,10.33
2018-11-03T04:09:02.282Z,14.77
2018-11-03T04:11:29.707Z,9.90
2018-11-03T04:13:57.108Z,14.57
2018-11-03T04:16:24.557Z,9.43
2018-11-03T04:18:51.980Z,10.97
2018-11-03T04:21:30.019Z,8.93
2018-11-03T04:23:58.008Z,12.27
2018-11-03T04:26:26.988Z,11.47
2018-11-03T04:28:54.886Z,10.70
2018-11-03T04:31:26.758Z,8.03
2018-11-03T04:33:54.439Z,11.83
2018-11-03T04:36:24.598Z,14.83
2018-11-03T04:39:05.534Z,8.93
2018-11-03T04:41:33.250Z,10.03
2018-11-03T04:44:00.652Z,10.47
2018-11-03T04:46:28.047Z,8.63
2018-11-03T04:49:01.036Z,9.97
2018-11-03T04:51:28.913Z,11.53
2018-11-03T04:53:56.498Z,12.00
2018-11-03T04:56:23.929Z,9.93
2018-11-03T04:58:51.329Z,8.03
2018-11-03T05:01:18.773Z,13.20
2018-11-03T05:03:46.288Z,9.10
2018-11-03T05:06:13.719Z,10.30
2018-11-03T05:08:41.120Z,8.80
2018-11-03T05:11:08.536Z,10.30
2018-11-03T05:13:36.056Z,9.83
2018-11-03T05:16:03.673Z,10.67
2018-11-03T05:18:31.124Z,10.20
2018-11-03T05:20:58.663Z,11.13
2018-11-03T05:23:26.002Z,9.20
2018-11-03T05:25:53.413Z,9.53
2018-11-03T05:28:20.879Z,11.93
2018-11-03T05:30:48.396Z,9.43
2018-11-03T05:33:15.794Z,16.87
2018-11-03T05:35:43.349Z,10.23
2018-11-03T05:38:10.830Z,11.67
2018-11-03T05:40:45.295Z,9.37
2018-11-03T05:43:12.714Z,9.27
2018-11-03T05:45:40.273Z,13.07
2018-11-03T05:48:08.910Z,14.57
2018-11-03T05:50:36.470Z,9.93
2018-11-03T05:53:04.170Z,16.33
2018-11-03T05:55:31.740Z,9.20
2018-11-03T05:58:00.103Z,13.73
2018-11-03T06:00:28.690Z,16.97
2018-11-03T06:02:58.813Z,17.40
2018-11-03T06:05:27.452Z,14.27
2018-11-03T06:07:57.574Z,19.13
2018-11-03T06:10:33.853Z,4.67
2018-11-03T06:13:07.389Z,13.93
2018-11-03T06:15:42.504Z,10.23
2018-11-03T06:28:24.766Z,8.47
2018-11-03T06:35:34.907Z,8.17
2018-11-03T06:38:20.584Z,10.07
2018-11-03T06:40:58.389Z,13.23
2018-11-03T06:43:43.648Z,12.63
2018-11-03T06:52:41.107Z,13.60
2018-11-03T06:55:31.076Z,6.10
2018-11-03T07:07:35.711Z,18.70
2018-11-03T07:10:03.474Z,24.43
2018-11-03T07:12:31.271Z,13.53
2018-11-03T07:14:58.393Z,12.13
2018-11-03T07:17:26.379Z,15.33
2018-11-03T07:19:53.816Z,10.70
2018-11-03T07:22:21.221Z,16.83
2018-11-03T07:24:48.618Z,12.33
2018-11-03T07:27:16.061Z,14.80
2018-11-03T07:29:43.563Z,13.40
2018-11-03T07:32:10.970Z,7.13
2018-11-03T07:34:38.444Z,6.93
2018-11-03T07:37:06.252Z,9.77
2018-11-03T07:39:33.851Z,6.67
2018-11-03T07:42:01.265Z,14.47
2018-11-03T07:44:28.684Z,9.30
2018-11-03T07:46:56.094Z,13.93
2018-11-03T07:49:23.626Z,7.80
2018-11-03T07:51:51.145Z,8.33
2018-11-03T07:54:18.590Z,13.00
2018-11-03T07:56:45.983Z,7.60
2018-11-03T07:59:13.426Z,11.60
2018-11-03T08:01:40.881Z,9.57
2018-11-03T08:04:08.854Z,10.80
2018-11-03T08:06:36.464Z,10.17
2018-11-03T08:09:06.066Z,8.67
2018-11-03T08:11:33.461Z,8.03
2018-11-03T08:14:00.918Z,13.57
2018-11-03T08:16:28.308Z,7.93
2018-11-03T08:18:55.696Z,7.20
2018-11-03T08:21:23.100Z,6.23
2018-11-03T08:23:50.587Z,7.70
2018-11-03T08:26:17.967Z,12.20
2018-11-03T08:28:45.364Z,6.40
2018-11-03T08:31:12.936Z,5.47
2018-11-03T08:33:40.414Z,6.43
2018-11-03T08:36:07.837Z,5.67
2018-11-03T08:38:35.259Z,8.23
2018-11-03T08:41:02.710Z,8.10
2018-11-03T08:43:30.117Z,6.10
2018-11-03T08:45:57.528Z,6.33
2018-11-03T08:48:25.079Z,6.23
2018-11-03T08:50:52.361Z,11.33
2018-11-03T08:53:19.796Z,8.07
2018-11-03T08:55:47.193Z,6.03
2018-11-03T08:58:14.630Z,8.43
2018-11-03T09:00:42.073Z,8.07
2018-11-03T09:03:09.492Z,6.80
2018-11-03T09:05:36.956Z,5.23
2018-11-03T09:08:04.852Z,9.33
2018-11-03T09:10:32.352Z,6.93
2018-11-03T09:12:59.796Z,7.83
2018-11-03T09:15:27.222Z,7.67
2018-11-03T09:17:54.679Z,10.30
2018-11-03T09:20:22.142Z,6.97
2018-11-03T09:22:49.631Z,6.93
2018-11-03T09:25:17.053Z,7.17
2018-11-03T09:27:44.781Z,4.37
2018-11-03T09:30:15.780Z,5.00
2018-11-03T09:32:43.296Z,6.53
2018-11-03T09:35:11.879Z,6.57
2018-11-03T09:37:39.277Z,3.53
2018-11-03T09:40:08.885Z,9.47
2018-11-03T09:42:36.394Z,4.47
2018-11-03T09:45:04.750Z,2.93
2018-11-03T09:47:32.133Z,3.50
2018-11-03T09:49:59.971Z,5.23
2018-11-03T09:52:27.617Z,5.60
2018-11-03T09:54:56.397Z,3.03
2018-11-03T09:57:24.037Z,1.50
2018-11-03T09:59:51.566Z,2.87
2018-11-03T10:02:19.032Z,1.10
2018-11-03T10:04:49.517Z,2.43
2018-11-03T10:07:19.936Z,5.93
2018-11-03T10:09:47.718Z,2.83
2018-11-03T10:12:18.255Z,2.40
2018-11-03T10:14:45.702Z,7.70
2018-11-03T10:17:13.117Z,3.57
2018-11-03T10:19:40.577Z,6.53
2018-11-03T10:22:08.109Z,3.20
2018-11-03T10:24:36.002Z,4.27
2018-11-03T10:27:04.236Z,4.27
2018-11-03T10:29:32.744Z,2.93
2018-11-03T10:32:00.261Z,1.70
2018-11-03T10:34:27.753Z,2.27
2018-11-03T10:36:55.394Z,1.77
2018-11-03T10:39:22.845Z,5.30
2018-11-03T10:41:50.533Z,1.63
2018-11-03T10:44:22.601Z,1.77
2018-11-03T10:46:50.345Z,3.80
2018-11-03T10:49:17.813Z,1.67
2018-11-03T10:51:45.213Z,4.37
2018-11-03T10:54:12.728Z,4.50
2018-11-03T10:56:40.159Z,2.00
2018-11-03T10:59:07.741Z,3.73
2018-11-03T11:01:40.859Z,4.40
2018-11-03T11:04:14.708Z,3.33
2018-11-03T11:06:47.971Z,0.50
2018-11-03T11:09:21.222Z,1.90
2018-11-03T11:11:55.401Z,2.80
2018-11-03T11:14:23.415Z,1.90
2018-11-03T11:16:50.930Z,5.93
2018-11-03T11:21:52.836Z,2.23
2018-11-03T11:24:20.547Z,1.30
2018-11-03T11:26:49.044Z,3.50
2018-11-03T11:29:16.585Z,1.30
2018-11-03T11:31:44.564Z,1.57
2018-11-03T11:34:12.439Z,0.77
2018-11-03T11:36:40.740Z,2.30
2018-11-03T11:39:08.326Z,1.13
2018-11-03T11:41:36.810Z,1.30
2018-11-03T11:44:04.679Z,3.73
2018-11-03T11:46:51.718Z,1.70
2018-11-03T11:49:20.072Z,5.37
2018-11-03T11:51:47.667Z,3.07
2018-11-03T11:54:15.282Z,3.67
2018-11-03T11:56:42.877Z,3.07
2018-11-03T11:59:10.306Z,2.43
2018-11-03T12:01:37.733Z,6.13
2018-11-03T12:04:05.563Z,2.57
2018-11-03T12:06:32.961Z,2.27
2018-11-03T12:09:00.389Z,1.90
2018-11-03T12:11:29.168Z,0.60
2018-11-03T12:13:56.998Z,3.63
2018-11-03T12:16:24.486Z,0.90
2018-11-03T12:18:51.955Z,2.43
2018-11-03T12:21:19.440Z,5.63
2018-11-03T12:23:46.936Z,2.37
2018-11-03T12:26:14.364Z,2.47
2018-11-03T12:28:42.047Z,2.90
2018-11-03T12:31:09.526Z,4.53
2018-11-03T12:33:36.946Z,4.27
2018-11-03T12:36:04.692Z,6.47
2018-11-03T12:38:32.286Z,2.50
2018-11-03T12:40:59.855Z,2.20
2018-11-03T12:43:27.352Z,2.53
2018-11-03T12:45:54.843Z,4.30
2018-11-03T12:48:22.394Z,2.90
2018-11-03T12:50:50.274Z,3.03
2018-11-03T12:53:19.251Z,3.33
2018-11-03T12:55:48.974Z,2.47
2018-11-03T12:58:17.722Z,2.60
2018-11-03T13:00:45.362Z,3.40
2018-11-03T13:03:12.957Z,3.33
2018-11-03T13:05:40.453Z,2.37
2018-11-03T13:08:08.078Z,3.90
2018-11-03T13:10:35.591Z,5.90
2018-11-03T13:13:02.986Z,3.13
2018-11-03T13:15:30.360Z,4.67
2018-11-03T13:17:57.780Z,2.23
2018-11-03T13:20:25.194Z,1.90
2018-11-03T13:22:52.648Z,1.37
2018-11-03T13:25:20.037Z,7.00
2018-11-03T13:27:47.456Z,2.60
2018-11-03T13:30:15.102Z,1.97
2018-11-03T13:32:42.507Z,3.60
2018-11-03T13:35:11.236Z,4.80
2018-11-03T13:37:38.655Z,6.23
2018-11-03T13:40:06.690Z,3.77
2018-11-03T13:42:34.121Z,6.07
2018-11-03T13:45:01.549Z,3.90
2018-11-03T13:47:29.193Z,2.00
2018-11-03T13:49:57.605Z,4.57
2018-11-03T13:52:25.269Z,5.60
2018-11-03T13:54:52.747Z,5.07
2018-11-03T13:57:27.765Z,4.07
2018-11-03T13:59:55.229Z,2.20
2018-11-03T14:02:22.849Z,1.83
2018-11-03T14:04:50.321Z,3.63
2018-11-03T14:07:18.001Z,3.77
2018-11-03T14:09:45.634Z,2.80
2018-11-03T14:12:13.442Z,3.47
2018-11-03T14:14:42.682Z,2.10
2018-11-03T14:17:11.985Z,3.47
2018-11-03T14:19:39.830Z,2.83
2018-11-03T14:22:07.268Z,1.67
2018-11-03T14:24:34.693Z,2.63
2018-11-03T14:27:02.094Z,2.87
2018-11-03T14:29:29.526Z,2.53
2018-11-03T14:31:56.938Z,3.97
2018-11-03T14:34:24.318Z,4.03
2018-11-03T14:36:51.773Z,5.23
2018-11-03T14:39:19.179Z,3.93
2018-11-03T14:41:46.583Z,7.67
2018-11-03T14:44:13.988Z,2.63
2018-11-03T14:46:41.427Z,2.77
2018-11-03T14:49:08.891Z,2.87
2018-11-03T14:51:36.321Z,4.37
2018-11-03T14:54:03.817Z,3.90
2018-11-03T14:56:31.266Z,5.53
2018-11-03T14:58:58.675Z,4.77
2018-11-03T15:01:26.090Z,3.60
2018-11-03T15:03:53.506Z,2.73
2018-11-03T15:06:20.946Z,5.73
2018-11-03T15:08:48.330Z,4.00
2018-11-03T15:11:15.771Z,8.10
2018-11-03T15:13:43.223Z,4.30
2018-11-03T15:16:10.791Z,5.27
2018-11-03T15:18:38.220Z,5.43
2018-11-03T15:21:05.642Z,6.10
2018-11-03T15:23:33.038Z,7.63
2018-11-03T15:26:00.497Z,4.20
2018-11-03T15:28:27.892Z,6.10
2018-11-03T15:30:55.297Z,3.53
2018-11-03T15:33:22.657Z,2.80
2018-11-03T15:35:50.114Z,7.70
2018-11-03T15:38:17.525Z,2.60
2018-11-03T15:40:44.939Z,3.43
2018-11-03T15:43:12.385Z,2.37
2018-11-03T15:45:39.822Z,3.87
2018-11-03T15:48:07.276Z,1.90
2018-11-03T15:50:39.277Z,6.27
2018-11-03T15:53:06.680Z,4.17
2018-11-03T15:55:34.155Z,12.87
2018-11-03T15:58:01.600Z,4.63
2018-11-03T16:00:29.014Z,6.90
2018-11-03T16:02:56.533Z,4.40
2018-11-03T16:05:23.935Z,6.70
2018-11-03T16:07:51.418Z,2.50
2018-11-03T16:10:18.899Z,6.13
2018-11-03T16:12:46.697Z,1.73
2018-11-03T16:15:14.467Z,3.20
2018-11-03T16:17:43.247Z,4.07
2018-11-03T16:20:12.417Z,4.03
2018-11-03T16:22:41.234Z,1.87
2018-11-03T16:25:10.203Z,3.40
2018-11-03T16:30:46.956Z,6.67
2018-11-03T16:33:14.470Z,4.90
2018-11-03T16:35:42.068Z,7.20
2018-11-03T16:38:09.504Z,3.10
2018-11-03T16:40:37.030Z,6.00
2018-11-03T16:43:04.773Z,4.60
2018-11-03T16:45:32.311Z,4.53
2018-11-03T16:47:59.854Z,3.97
2018-11-03T16:50:27.358Z,2.33
2018-11-03T16:52:54.849Z,4.37
2018-11-03T16:55:22.363Z,3.97
2018-11-03T16:57:49.837Z,1.97
2018-11-03T17:00:17.426Z,2.13
2018-11-03T17:02:44.954Z,3.30
2018-11-03T17:05:13.436Z,4.87
2018-11-03T17:07:40.908Z,3.93
2018-11-03T17:10:10.737Z,5.63
2018-11-03T17:12:38.800Z,4.10
2018-11-03T17:15:06.217Z,3.63
2018-11-03T17:17:33.699Z,6.07
2018-11-03T17:20:01.227Z,3.50
2018-11-03T17:22:28.705Z,6.50
2018-11-03T17:24:56.276Z,2.87
2018-11-03T17:27:23.749Z,1.57
2018-11-03T17:29:51.249Z,5.70
2018-11-03T17:32:18.701Z,6.80
2018-11-03T17:34:46.218Z,4.20
2018-11-03T17:37:13.766Z,6.07
2018-11-03T17:39:41.314Z,3.50
2018-11-03T17:42:08.841Z,5.10
2018-11-03T17:44:36.330Z,4.23
2018-11-03T17:47:04.150Z,3.57
2018-11-03T17:49:31.685Z,3.93
2018-11-03T17:51:59.170Z,4.93
2018-11-03T17:54:26.685Z,2.03
2018-11-03T17:56:54.150Z,4.00
2018-11-03T17:59:21.637Z,2.43
2018-11-03T18:01:49.130Z,1.03
2018-11-03T18:04:16.612Z,4.13
2018-11-03T18:06:44.118Z,4.13
2018-11-03T18:09:11.612Z,6.90
2018-11-03T18:11:39.126Z,2.40
2018-11-03T18:14:06.974Z,1.83
2018-11-03T18:16:34.539Z,5.40
2018-11-03T18:19:02.010Z,5.03
2018-11-03T18:21:29.565Z,5.83
2018-11-03T18:23:57.125Z,5.23
2018-11-03T18:26:24.734Z,5.13
2018-11-03T18:28:52.275Z,3.70
2018-11-03T18:31:19.738Z,2.67
2018-11-03T18:33:47.298Z,3.33
2018-11-03T18:36:14.818Z,6.33
2018-11-03T18:38:42.267Z,2.47
2018-11-03T18:41:09.786Z,4.20
2018-11-03T18:43:37.327Z,2.97
2018-11-03T18:46:05.012Z,1.93
2018-11-03T18:48:32.511Z,5.23
2018-11-03T18:50:59.905Z,1.87
2018-11-03T18:53:27.352Z,1.07
2018-11-03T18:55:54.809Z,1.73
2018-11-03T18:58:22.246Z,2.97
2018-11-03T19:00:49.718Z,2.57
2018-11-03T19:03:17.153Z,3.33
2018-11-03T19:05:44.599Z,1.37
2018-11-03T19:08:12.078Z,4.97
2018-11-03T19:10:39.517Z,6.23
2018-11-03T19:13:07.055Z,7.20
2018-11-03T19:15:34.397Z,4.10
2018-11-03T19:18:01.816Z,5.47
2018-11-03T19:20:29.325Z,5.47
2018-11-03T19:22:56.753Z,2.33
2018-11-03T19:25:24.161Z,4.40
2018-11-03T19:27:51.701Z,3.90
2018-11-03T19:30:19.210Z,3.63
2018-11-03T19:32:46.625Z,3.40
2018-11-03T19:35:14.097Z,3.37
2018-11-03T19:37:42.180Z,3.57
2018-11-03T19:40:11.042Z,2.53
2018-11-03T19:42:38.882Z,6.37
2018-11-03T19:45:06.432Z,4.13
2018-11-03T19:47:33.850Z,2.77
2018-11-03T19:50:01.282Z,5.00
2018-11-03T19:52:28.724Z,3.07
2018-11-03T19:54:56.205Z,4.53
2018-11-03T19:57:23.653Z,3.80
2018-11-03T19:59:51.073Z,5.33
2018-11-03T20:02:18.539Z,5.47
2018-11-03T20:04:45.989Z,6.10
2018-11-03T20:07:13.459Z,10.47
2018-11-03T20:09:40.893Z,6.37
2018-11-03T20:12:08.373Z,2.37
2018-11-03T20:14:35.905Z,5.07
2018-11-03T20:17:03.354Z,3.93
2018-11-03T20:19:30.777Z,4.63
2018-11-03T20:21:58.288Z,4.87
2018-11-03T20:24:25.965Z,6.20
2018-11-03T20:26:53.397Z,2.57
2018-11-03T20:29:20.851Z,3.77
2018-11-03T20:31:48.304Z,6.90
2018-11-03T20:34:15.757Z,4.53
2018-11-03T20:36:43.182Z,3.33
2018-11-03T20:39:10.938Z,3.77
2018-11-03T20:41:38.404Z,2.03
2018-11-03T20:44:06.269Z,6.43
2018-11-03T20:46:34.138Z,3.93
2018-11-03T20:49:01.566Z,6.27
2018-11-03T20:51:29.033Z,6.67
2018-11-03T20:53:56.481Z,3.73
2018-11-03T20:56:23.942Z,5.40
2018-11-03T20:58:51.384Z,5.20
2018-11-03T21:01:18.862Z,4.47
2018-11-03T21:03:46.329Z,5.13
2018-11-03T21:06:13.845Z,7.17
2018-11-03T21:08:41.277Z,5.90
2018-11-03T21:11:08.763Z,4.40
2018-11-03T21:13:36.198Z,7.03
2018-11-03T21:16:03.799Z,2.13
2018-11-03T21:18:31.308Z,4.40
2018-11-03T21:20:58.714Z,4.57
2018-11-03T21:23:26.252Z,4.77
2018-11-03T21:25:53.653Z,5.43
2018-11-03T21:28:21.097Z,7.23
2018-11-03T21:30:48.523Z,5.33
2018-11-03T21:33:16.067Z,8.97
2018-11-03T21:35:43.445Z,6.30
2018-11-03T21:38:10.900Z,4.77
2018-11-03T21:40:38.380Z,8.20
2018-11-03T21:43:05.798Z,15.23
2018-11-03T21:45:33.263Z,10.00
2018-11-03T21:48:00.733Z,15.80
2018-11-03T21:50:28.149Z,18.27
2018-11-03T21:52:55.817Z,25.00
2018-11-03T21:55:23.261Z,17.90
2018-11-03T21:57:50.680Z,8.70
2018-11-03T22:00:18.136Z,6.93
2018-11-03T22:02:45.533Z,9.23
2018-11-03T22:05:13.642Z,14.97
2018-11-03T22:07:41.853Z,7.63
2018-11-03T22:10:09.607Z,16.80
2018-11-03T22:12:37.038Z,8.37
2018-11-03T22:15:05.220Z,13.63
2018-11-03T22:17:32.690Z,19.50
2018-11-03T22:20:00.149Z,14.27
2018-11-03T22:22:27.601Z,17.70
2018-11-03T22:24:55.039Z,18.07
2018-11-03T22:27:22.449Z,14.33
2018-11-03T22:29:49.894Z,16.07
2018-11-03T22:32:17.484Z,16.60
2018-11-03T22:34:44.929Z,25.93
2018-11-03T22:37:12.440Z,20.90
2018-11-03T22:39:39.963Z,29.80
2018-11-03T22:42:07.504Z,28.63
2018-11-03T22:44:34.969Z,20.73
2018-11-03T22:47:02.443Z,31.97
2018-11-03T22:49:30.004Z,21.47
2018-11-03T22:51:57.587Z,29.00
2018-11-03T22:54:24.990Z,30.83
2018-11-03T22:56:52.442Z,31.50
2018-11-03T22:59:19.986Z,20.47
2018-11-03T23:01:47.426Z,28.27
2018-11-03T23:04:14.860Z,18.00
2018-11-03T23:06:42.290Z,14.00
2018-11-03T23:09:09.768Z,30.13
2018-11-03T23:11:37.199Z,23.40
2018-11-03T23:14:04.739Z,27.80
2018-11-03T23:16:32.178Z,25.53
2018-11-03T23:18:59.604Z,30.13
2018-11-03T23:21:27.026Z,31.37
2018-11-03T23:23:54.561Z,19.20
2018-11-03T23:26:22.709Z,20.53
2018-11-03T23:28:50.586Z,9.87
2018-11-03T23:31:18.110Z,17.17
2018-11-03T23:33:45.530Z,13.33
2018-11-03T23:36:13.039Z,12.53
2018-11-03T23:38:40.454Z,11.53
2018-11-03T23:41:07.926Z,22.63
2018-11-03T23:43:35.339Z,19.33
2018-11-03T23:46:02.869Z,20.17
2018-11-03T23:48:30.329Z,17.73
2018-11-03T23:50:57.785Z,34.63
2018-11-03T23:53:25.308Z,25.97
2018-11-03T23:55:52.832Z,47.43
2018-11-03T23:58:20.341Z,31.90
